Flight Track Log - Related Links

Times and Time Zones

All times are in EDT time to prevent confusion due to time zone crossing. See the N430WC flight status page for this flight to view local times or setup timezone preferences in your user account.

Time Position Orientation Groundspeed Altitude Reporting Facility
EDT Latitude Longitude Course Direction KTS MPH feet Rate Location/Type
Wed 03:16:54 PM 35.6267 -95.3300 226° Southwest 46 53 2,300  Level Fort Center
Wed 03:17:54 PM 35.5900 -95.3767 226° Southwest 93 107 4,400 2,250 Climbing Fort Center
Wed 03:18:54 PM 35.5850 -95.4586 266° West 166 191 6,800 3,025 Climbing Fort Center
Wed 03:19:55 PM 35.5297 -95.5286 226° Southwest 231 266 10,500 2,900 Climbing Fort Center
Wed 03:20:54 PM 35.4642 -95.6067 224° Southwest 304 350 12,600 2,168 Climbing Fort Center
Wed 03:21:54 PM 35.4367 -95.7219 254° West 323 372 14,800 1,950 Climbing Fort Center
Wed 03:22:54 PM 35.4964 -95.8328 304° West 327 376 16,500 1,700 Climbing Fort Center
Wed 03:23:54 PM 35.5589 -95.9503 303° West 407 468 18,200 2,016 Climbing Kansas Center
Wed 03:24:56 PM 35.6233 -96.0706 303° West 415 478 20,600 2,286 Climbing Kansas Center
Wed 03:26:00 PM 35.6947 -96.2033 304° West 416 479 23,000 2,129 Climbing Kansas Center
Wed 03:27:00 PM 35.7583 -96.3244 303° West 420 483 25,000 1,541 Climbing Kansas Center
Wed 03:28:28 PM 35.8508 -96.5006 303° West 433 498 26,800 1,168 Climbing Kansas Center
Wed 03:29:29 PM 35.9228 -96.6319 304° West 452 520 27,900 1,104 Climbing Kansas Center
Wed 03:30:33 PM 36.0092 -96.7964 303° West 471 542 29,100 1,152 Climbing Kansas Center
Wed 03:31:34 PM 36.0794 -96.9372 302° West 482 555 30,300 1,082 Climbing Kansas Center
Wed 03:32:35 PM 36.1347 -97.0894 294° West 487 560 31,300 1,056 Climbing Kansas Center
Wed 03:33:39 PM 36.1894 -97.2425 294° West 489 563 32,500 1,113 Climbing Kansas Center
Wed 03:34:39 PM 36.2453 -97.3983 294° West 495 570 33,600 1,065 Climbing Kansas Center
Wed 03:35:43 PM 36.3011 -97.5525 294° West 495 570 34,700 1,258 Climbing Kansas Center
Wed 03:36:43 PM 36.3642 -97.7325 294° West 485 558 36,200 1,220 Climbing Kansas Center
Wed 03:37:46 PM 36.4167 -97.8817 294° West 480 552 37,200 945 Climbing Kansas Center
Wed 03:38:50 PM 36.4697 -98.0328 294° West 479 551 38,200 1,065 Climbing Kansas Center
Wed 03:39:50 PM 36.5217 -98.1811 294° West 475 547 39,400 893 Climbing Kansas Center
Wed 03:40:51 PM 36.5708 -98.3264 293° West 467 537 40,000 288 Climbing Kansas Center
Wed 03:41:55 PM 36.6306 -98.5017 293° West 461 531 40,000  Level Kansas Center
Wed 03:42:56 PM 36.6806 -98.6467 293° West 459 528 40,000  Level Kansas Center
Wed 03:43:59 PM 36.7303 -98.7922 293° West 458 527 40,000  Level Kansas Center
Wed 03:45:01 PM 36.7811 -98.9406 293° West 463 533 40,000  Level Kansas Center
Wed 03:46:02 PM 36.8303 -99.0886 293° West 464 534 40,000  Level Kansas Center
Wed 03:47:05 PM 36.8806 -99.2369 293° West 464 534 40,000  Level Kansas Center
Wed 03:48:06 PM 36.9389 -99.4147 292° West 463 533 40,000  Level Kansas Center
Wed 03:49:08 PM 36.9900 -99.5594 294° West 459 528 40,000  Level Kansas Center
Wed 03:50:11 PM 37.0433 -99.7214 292° West 461 531 40,000  Level Kansas Center
Wed 03:51:15 PM 37.0894 -99.8647 292° West 463 533 40,000  Level Kansas Center
Wed 03:52:16 PM 37.1450 -100.0317 293° West 464 534 40,000  Level Kansas Center
Wed 03:53:17 PM 37.1908 -100.1744 292° West 463 533 40,000  Level Kansas Center
Wed 03:54:18 PM 37.2369 -100.3172 292° West 461 531 40,000  Level Kansas Center
Wed 03:55:22 PM 37.2908 -100.4831 292° West 459 528 40,000  Level Kansas Center
Wed 03:56:23 PM 37.3367 -100.6272 292° West 462 532 40,000  Level Kansas Center
Wed 03:57:26 PM 37.3911 -100.7947 292° West 460 529 40,000  Level Kansas Center
Wed 03:58:28 PM 37.4483 -100.9325 298° West 459 528 40,000  Level Kansas Center
Wed 03:59:28 PM 37.5022 -101.0708 296° West 461 531 40,000  Level Kansas Center
Wed 04:00:32 PM 37.5686 -101.2342 297° West 458 527 40,000  Level Kansas Center
Wed 04:01:32 PM 37.6233 -101.3692 297° West 453 521 40,000  Level Kansas Center
Wed 04:02:36 PM 37.6867 -101.5292 297° West 453 521 40,000  Level Kansas Center
Wed 04:03:39 PM 37.7414 -101.6661 297° West 456 525 40,000  Level Kansas Center
Wed 04:04:39 PM 37.8039 -101.8250 297° West 453 521 40,000  Level Kansas Center
Wed 04:05:43 PM 37.8578 -101.9617 297° West 453 521 40,000  Level Kansas Center
Wed 04:06:28 PM 37.9078 -102.0858 297° West 452 520 40,000  Level Denver Center
Wed 04:07:29 PM 37.9594 -102.2219 296° West 451 519 40,000  Level Denver Center
Wed 04:08:31 PM 38.0217 -102.3808 296° West 451 519 40,000  Level Denver Center
Wed 04:09:33 PM 38.0697 -102.5069 296° West 451 519 40,000  Level Denver Center
Wed 04:10:35 PM 38.1308 -102.6658 296° West 449 517 40,000  Level Denver Center
Wed 04:11:37 PM 38.1839 -102.8033 296° West 452 520 40,000  Level Denver Center
Wed 04:12:39 PM 38.2436 -102.9614 296° West 453 521 40,000  Level Denver Center
Wed 04:13:41 PM 38.2969 -103.1036 296° West 454 522 40,000  Level Denver Center
Wed 04:14:43 PM 38.3572 -103.2656 295° West 455 524 40,000  Level Denver Center
Wed 04:15:45 PM 38.4094 -103.4036 296° West 452 520 40,000  Level Denver Center
Wed 04:16:47 PM 38.4644 -103.5517 295° West 453 521 40,000  Level Denver Center
Wed 04:17:49 PM 38.5239 -103.7133 295° West 451 519 40,000  Level Denver Center
Wed 04:18:51 PM 38.5750 -103.8517 295° West 451 519 40,000  Level Denver Center
Wed 04:19:53 PM 38.6339 -104.0131 295° West 451 519 40,000  Level Denver Center
Wed 04:20:55 PM 38.6836 -104.1508 295° West 453 521 40,000  Level Denver Center
Wed 04:21:57 PM 38.7364 -104.2964 295° West 451 519 40,000  Level Denver Center
Wed 04:22:59 PM 38.7881 -104.4431 294° West 450 518 40,000 581 Level Denver Center
Wed 04:24:01 PM 38.8511 -104.6150 295° West 444 511 41,200 1,065 Climbing Denver Center
Wed 04:25:03 PM 38.9014 -104.7558 295° West 437 503 42,200 871 Climbing Denver Center
Wed 04:26:05 PM 38.9497 -104.8942 294° West 425 489 43,000 387 Climbing Denver Center
Wed 04:27:07 PM 39.0000 -105.0344 295° West 429 494 43,000  Level Denver Center
Wed 04:28:10 PM 39.0500 -105.1806 294° West 441 507 43,000  Level Denver Center
Wed 04:29:12 PM 39.1025 -105.3256 295° West 446 513 43,000  Level Denver Center
Wed 04:30:14 PM 39.1517 -105.4700 294° West 441 507 43,000  Level Denver Center
Wed 04:31:16 PM 39.2122 -105.6447 294° West 442 509 43,000  Level Denver Center
Wed 04:32:18 PM 39.2631 -105.7903 294° West 444 511 43,000  Level Denver Center
Wed 04:33:32 PM 39.3236 -105.9642 294° West 442 509 43,000  Level Denver Center
Wed 04:34:34 PM 39.3725 -106.1100 293° West 443 510 43,000  Level Denver Center
Wed 04:35:36 PM 39.4256 -106.2636 294° West 441 507 43,000  Level Denver Center
Wed 04:36:38 PM 39.4744 -106.4094 294° West 443 510 43,000  Level Denver Center
Wed 04:37:40 PM 39.5308 -106.5767 294° West 444 511 43,000  Level Denver Center
Wed 04:38:42 PM 39.5728 -106.7019 294° West 448 516 43,000  Level Denver Center
Wed 04:39:44 PM 39.6303 -106.8753 293° West 444 511 43,000  Level Denver Center
Wed 04:40:46 PM 39.6772 -107.0197 293° West 442 509 43,000  Level Denver Center
Wed 04:41:48 PM 39.7256 -107.1681 293° West 446 513 43,000  Level Denver Center
Wed 04:42:50 PM 39.7739 -107.3172 293° West 448 516 43,000  Level Denver Center
Wed 04:43:52 PM 39.8219 -107.4667 293° West 449 517 43,000  Level Denver Center
Wed 04:44:54 PM 39.8808 -107.6461 293° West 450 518 43,000  Level Denver Center
Wed 04:45:56 PM 39.9269 -107.7975 292° West 450 518 43,000  Level Denver Center
Wed 04:46:58 PM 39.9797 -107.9542 294° West 443 510 43,000  Level Denver Center
Wed 04:48:00 PM 40.0247 -108.1000 292° West 449 517 43,000  Level Denver Center
Wed 04:49:02 PM 40.0781 -108.2683 293° West 450 518 43,000  Level Denver Center
Wed 04:50:04 PM 40.1225 -108.4142 292° West 451 519 43,000  Level Denver Center
Wed 04:50:35 PM 40.1444 -108.4853 292° West 449 517 43,000  Level Salt Center
Wed 04:51:36 PM 40.1986 -108.6547 293° West 451 519 43,000  Level Salt Center
Wed 04:52:08 PM 40.2203 -108.7289 291° West 450 518 43,000  Level Denver Center
Wed 04:53:10 PM 40.2661 -108.8750 292° West 451 519 43,000  Level Denver Center
Wed 04:53:40 PM 40.2953 -108.9703 292° West 450 518 43,000  Level Salt Center
Wed 04:54:42 PM 40.3375 -109.1083 292° West 453 521 43,000  Level Salt Center
Wed 04:55:44 PM 40.3839 -109.2614 292° West 454 522 43,000  Level Salt Center
Wed 04:56:46 PM 40.4397 -109.4439 292° West 451 519 43,000  Level Salt Center
Wed 04:57:47 PM 40.4861 -109.5992 291° West 456 525 43,000  Level Salt Center
Wed 04:58:51 PM 40.5311 -109.7525 291° West 453 521 43,000  Level Salt Center
Wed 05:00:00 PM 40.5824 -109.9232 292° West  Level FlightAware
Wed 05:00:55 PM 40.6283 -110.0786 292° West 453 521 43,000  Level Salt Center
Wed 05:01:57 PM 40.6722 -110.2283 291° West 455 524 43,000  Level Salt Center
Wed 05:02:58 PM 40.7233 -110.4017 291° West 455 524 43,000  Level Salt Center
Wed 05:04:00 PM 40.7664 -110.5492 291° West 452 520 43,000  Level Salt Center
Wed 05:05:02 PM 40.8119 -110.7089 291° West 449 517 43,000  Level Salt Center
Wed 05:06:04 PM 40.8561 -110.8603 291° West 443 510 43,000  Level Salt Center
Wed 05:07:06 PM 40.9006 -111.0167 291° West 455 524 43,000  Level Salt Center
Wed 05:08:08 PM 40.9447 -111.1717 291° West 453 521 43,000  Level Salt Center
Wed 05:09:10 PM 40.9969 -111.3583 290° West 456 525 43,000  Level Salt Center
Wed 05:10:11 PM 41.0397 -111.5125 290° West 450 518 43,000  Level Salt Center
Wed 05:11:13 PM 41.0828 -111.6650 291° West 448 516 43,000  Level Salt Center
Wed 05:12:15 PM 41.1256 -111.8153 291° West 455 524 43,000  Level Salt Center
Wed 05:13:17 PM 41.1742 -111.9975 290° West 448 516 43,000  Level Salt Center
Wed 05:14:19 PM 41.2158 -112.1517 290° West 448 516 43,000  Level Salt Center
Wed 05:15:21 PM 41.2578 -112.3081 290° West 449 517 43,000  Level Salt Center
Wed 05:16:23 PM 41.2994 -112.4639 290° West 449 517 43,000 48 Level Salt Center
Wed 05:17:25 PM 41.3411 -112.6203 290° West 449 517 43,100  Climbing Salt Center
Wed 05:18:27 PM 41.3831 -112.7764 290° West 448 516 43,000 -48 Descending Salt Center
Wed 05:19:29 PM 41.4322 -112.9656 289° West 450 518 43,000  Level Salt Center
Wed 05:20:31 PM 41.4731 -113.1217 289° West 448 516 43,000  Level Salt Center
Wed 05:21:33 PM 41.5131 -113.2792 289° West 450 518 43,000  Level Salt Center
Wed 05:22:35 PM 41.5553 -113.4381 290° West 454 522 43,000  Level Salt Center
Wed 05:23:37 PM 41.5964 -113.5969 289° West 455 524 43,000  Level Salt Center
Wed 05:24:39 PM 41.6356 -113.7553 288° West 451 519 43,000  Level Salt Center
Wed 05:25:41 PM 41.6844 -113.9481 289° West 456 525 43,000  Level Salt Center
Wed 05:26:43 PM 41.7247 -114.1058 289° West 452 520 43,000  Level Salt Center
Wed 05:27:45 PM 41.7656 -114.2650 289° West 452 520 43,000  Level Salt Center
Wed 05:28:47 PM 41.8044 -114.4261 288° West 455 524 43,000  Level Salt Center
Wed 05:29:49 PM 41.8478 -114.5983 289° West 455 524 43,000  Level Salt Center
Wed 05:30:51 PM 41.8861 -114.7522 289° West 452 520 43,000  Level Salt Center
Wed 05:31:53 PM 41.9286 -114.9319 288° West 452 520 43,000  Level Salt Center
Wed 05:32:55 PM 41.9661 -115.0847 288° West 452 520 43,000  Level Salt Center
Wed 05:33:57 PM 42.0086 -115.2636 288° West 451 519 43,000  Level Salt Center
Wed 05:34:59 PM 42.0453 -115.4189 288° West 453 521 43,000  Level Salt Center
Wed 05:36:01 PM 42.0872 -115.5981 288° West 455 524 43,000  Level Salt Center
Wed 05:37:03 PM 42.1261 -115.7647 288° West 449 517 43,000  Level Salt Center
Wed 05:38:05 PM 42.1769 -115.9289 293° West 459 528 43,000  Level Salt Center
Wed 05:39:07 PM 42.2653 -116.0683 311° West 471 542 43,000  Level Salt Center
Wed 05:40:09 PM 42.3347 -116.2078 304° West 463 533 43,000  Level Salt Center
Wed 05:41:11 PM 42.4097 -116.3583 304° West 464 534 43,000  Level Salt Center
Wed 05:42:13 PM 42.4847 -116.5108 304° West 464 534 43,000  Level Salt Center
Wed 05:43:15 PM 42.5589 -116.6622 304° West 463 533 43,000  Level Salt Center
Wed 05:44:17 PM 42.6325 -116.8167 303° West 465 535 43,000  Level Salt Center
Wed 05:45:20 PM 42.7078 -116.9700 304° West 467 537 43,000  Level Salt Center
Wed 05:46:22 PM 42.7756 -117.1133 303° West 465 535 43,000  Level Salt Center
Wed 05:47:24 PM 42.8478 -117.2669 303° West 466 536 43,000  Level Salt Center
Wed 05:48:26 PM 42.9214 -117.4239 303° West 467 537 43,000  Level Salt Center
Wed 05:49:28 PM 42.9928 -117.5756 303° West 466 536 43,000  Level Salt Center
Wed 05:50:30 PM 43.0592 -117.7186 302° West 466 536 43,000  Level Salt Center
Wed 05:51:32 PM 43.1364 -117.8869 302° West 470 541 43,000  Level Salt Center
Wed 05:52:34 PM 43.2017 -118.0319 302° West 468 539 43,000  Level Salt Center
Wed 05:53:36 PM 43.2794 -118.2008 302° West 471 542 43,000  Level Salt Center
Wed 05:54:38 PM 43.3528 -118.3503 304° West 463 533 43,000  Level Salt Center
Wed 05:55:40 PM 43.4217 -118.5008 302° West 463 533 43,000  Level Salt Center
Wed 05:56:42 PM 43.4906 -118.6544 302° West 469 540 43,000  Level Salt Center
Wed 05:57:44 PM 43.5589 -118.8100 301° West 472 543 43,000  Level Salt Center
Wed 05:58:48 PM 43.6406 -118.9953 301° West 473 544 43,000  Level Salt Center
Wed 05:59:50 PM 43.7086 -119.1503 301° West 472 543 43,000  Level Salt Center
Wed 06:00:52 PM 43.7764 -119.3058 301° West 472 543 43,000  Level Salt Center
Wed 06:01:54 PM 43.8453 -119.4622 301° West 473 544 43,000  Level Salt Center
Wed 06:02:56 PM 43.9131 -119.6197 301° West 475 547 43,000  Level Salt Center
Wed 06:03:58 PM 43.9811 -119.7764 301° West 475 547 43,000  Level Salt Center
Wed 06:05:00 PM 44.0481 -119.9325 301° West 473 544 43,000  Level Salt Center
Wed 06:06:13 PM 44.1403 -120.1531 300° West 468 539 43,000  Level Seattle Center
Wed 06:07:14 PM 44.2075 -120.3097 301° West 470 541 43,000 -295 Level Seattle Center
Wed 06:08:15 PM 44.2747 -120.4686 301° West 472 543 42,400 -934 Descending Seattle Center
Wed 06:09:16 PM 44.3411 -120.6283 300° West 474 545 41,100 -1,623 Descending Seattle Center
Wed 06:10:17 PM 44.4100 -120.7875 301° West 478 550 39,100 -2,311 Descending Seattle Center
Wed 06:11:18 PM 44.4672 -120.9472 297° West 466 536 36,400 -3,000 Descending Seattle Center
Wed 06:12:19 PM 44.5219 -121.1069 296° West 461 531 33,000 -3,344 Descending Seattle Center
Wed 06:13:20 PM 44.5758 -121.2692 295° West 464 534 29,600 -3,463 Descending Seattle Center
Wed 06:14:22 PM 44.6358 -121.4442 296° West 472 543 25,900 -3,415 Descending Seattle Center
Wed 06:15:23 PM 44.6889 -121.6022 295° West 452 520 22,600 -3,098 Descending Seattle Center
Wed 06:16:24 PM 44.7344 -121.7417 295° West 403 464 19,600 -3,000 Descending Seattle Center
Wed 06:18:01 PM 44.8119 -121.9811 295° West 375 432 14,700 -2,961 Descending Seattle Center
Wed 06:18:56 PM 44.8531 -122.1044 295° West 381 438 12,100 -2,512 Descending Seattle Center
Wed 06:19:27 PM 44.8700 -122.1536 296° West 375 432 11,100 -2,129 Descending Seattle Center
Wed 06:20:29 PM 44.9086 -122.2717 295° West 305 351 8,800 -2,000 Descending Seattle Center
Wed 06:21:30 PM 44.9536 -122.3614 305° West 285 328 7,000 -885 Descending Seattle Center
Wed 06:22:31 PM 45.0061 -122.4450 312° West 285 328 7,000 -246 Level Seattle Center
Wed 06:23:32 PM 45.0472 -122.5111 311° West 242 278 6,500 -1,024 Descending Seattle Center
Wed 06:24:34 PM 45.0864 -122.5775 310° West 222 255 4,900 -1,610 Descending Seattle Center
Wed 06:25:35 PM 45.1272 -122.6458 310° West 226 260 3,200 -1,328 Descending Seattle Center
Wed 06:26:36 PM 45.1611 -122.7019 311° West 201 231 2,200 -885 Descending Seattle Center
Wed 06:27:37 PM 45.1875 -122.7439 312° West 160 184 1,400 -639 Descending Seattle Center
Wed 06:28:38 PM 45.2142 -122.7744 321° Northwest 135 155 900 -590 Descending Seattle Center
Wed 06:29:39 PM 45.2519 -122.7708 North 124 143 200 -689 Descending Seattle Center

Login

Don't have an account? Register now (free) for customized features, flight alerts, and more!